Time;durP1;ratioP1;P1;durP2;ratioP2;P2;SDS_P1;SDS_P2;PMS_P1;PMS_P2;Temp;Humidity;BMP_temperature;BMP_pressure;BME280_temperature;BME280_humidity;BME280_pressure;Samples;Min_cycle;Max_cycle;Signal;HPM_P1;HPM_P2
2022/12/01 00:00:27;;;;;;;36.72;25.48;;;;;;;4.69;100.00;102542.78;4979115;28;20085;-62
2022/12/01 00:02:52;;;;;;;38.53;25.92;;;;;;;4.69;100.00;102545.34;4990159;28;20035;-62
2022/12/01 00:05:18;;;;;;;35.33;24.65;;;;;;;4.67;100.00;102547.78;4989294;28;20145;-63
2022/12/01 00:07:43;;;;;;;38.22;26.05;;;;;;;4.66;100.00;102539.94;4990155;28;20026;-63
2022/12/01 00:10:25;;;;;;;36.70;25.02;;;;;;;4.66;100.00;102539.94;4989675;28;20046;-62
2022/12/01 00:12:52;;;;;;;37.47;25.15;;;;;;;4.67;100.00;102539.19;4990164;28;20363;-63
2022/12/01 00:15:17;;;;;;;42.03;26.60;;;;;;;4.66;100.00;102540.84;4989247;28;20022;-63
2022/12/01 00:17:44;;;;;;;40.10;25.92;;;;;;;4.66;100.00;102542.50;4990342;28;20046;-62
2022/12/01 00:20:11;;;;;;;40.50;25.85;;;;;;;4.66;100.00;102534.78;4990168;28;20418;-63
2022/12/01 00:22:36;;;;;;;44.40;26.45;;;;;;;4.65;100.00;102530.44;4990601;28;20014;-63
2022/12/01 00:25:01;;;;;;;39.58;24.83;;;;;;;4.65;100.00;102526.22;4989300;28;20026;-63
2022/12/01 00:27:27;;;;;;;44.58;26.40;;;;;;;4.65;100.00;102533.00;4989572;28;20022;-62
2022/12/01 00:29:52;;;;;;;45.70;26.23;;;;;;;4.65;100.00;102528.78;4989461;28;20026;-62
2022/12/01 00:32:17;;;;;;;42.75;25.23;;;;;;;4.64;100.00;102532.09;4990177;28;20022;-62
2022/12/01 00:34:43;;;;;;;50.73;28.50;;;;;;;4.64;100.00;102526.09;4989461;28;20547;-63
2022/12/01 00:37:08;;;;;;;49.37;27.67;;;;;;;4.63;100.00;102524.28;4989836;28;20062;-63
2022/12/01 00:39:33;;;;;;;45.13;27.02;;;;;;;4.62;100.00;102527.63;4989057;28;20014;-63
2022/12/01 00:41:58;;;;;;;49.07;28.00;;;;;;;4.62;100.00;102527.63;4989544;28;20053;-62
2022/12/01 00:44:24;;;;;;;45.07;27.10;;;;;;;4.63;100.00;102530.31;4988780;28;20129;-62
2022/12/01 00:46:49;;;;;;;47.63;28.10;;;;;;;4.62;100.00;102535.34;4989631;28;20030;-62
2022/12/01 00:49:14;;;;;;;51.70;27.52;;;;;;;4.62;100.00;102530.19;4989064;28;20029;-62
2022/12/01 00:51:40;;;;;;;45.37;26.37;;;;;;;4.63;100.00;102532.88;4989133;28;20076;-62
2022/12/01 00:54:05;;;;;;;48.37;26.60;;;;;;;4.66;100.00;102532.22;4988953;28;20020;-62
2022/12/01 00:56:30;;;;;;;50.70;27.92;;;;;;;4.64;100.00;102541.50;4989469;28;20483;-62
2022/12/01 00:58:56;;;;;;;48.27;27.03;;;;;;;4.64;100.00;102541.50;4988002;28;20074;-62
2022/12/01 01:01:21;;;;;;;56.10;31.13;;;;;;;4.63;100.00;102531.97;4989450;28;20026;-63
2022/12/01 01:03:47;;;;;;;50.15;28.33;;;;;;;4.62;100.00;102537.91;4988772;28;20580;-62
2022/12/01 01:06:12;;;;;;;46.15;26.55;;;;;;;4.62;100.00;102535.34;4988587;28;20084;-62
2022/12/01 01:08:38;;;;;;;50.35;26.92;;;;;;;4.62;100.00;102541.38;4988001;28;20138;-62
2022/12/01 01:11:05;;;;;;;50.95;27.30;;;;;;;4.63;100.00;102537.13;4986585;28;20028;-63
2022/12/01 01:13:31;;;;;;;53.08;28.10;;;;;;;4.62;100.00;102549.09;4988395;28;20080;-63
2022/12/01 01:16:18;;;;;;;56.17;28.73;;;;;;;4.63;100.00;102542.25;4982777;28;20030;-62
2022/12/01 01:18:44;;;;;;;50.38;27.45;;;;;;;4.64;100.00;102546.63;4976800;28;20467;-62
2022/12/01 01:21:13;;;;;;;51.85;27.40;;;;;;;4.64;100.00;102551.78;4988698;28;20487;-63
2022/12/01 01:23:39;;;;;;;51.60;28.27;;;;;;;4.63;100.00;102547.38;4988596;28;20390;-62
2022/12/01 01:26:08;;;;;;;57.47;29.33;;;;;;;4.62;100.00;102548.16;4985509;28;20264;-62
2022/12/01 01:28:33;;;;;;;54.33;27.65;;;;;;;4.60;100.00;102548.03;4987226;28;20550;-62
2022/12/01 01:30:59;;;;;;;50.33;28.55;;;;;;;4.61;100.00;102556.63;4980924;28;20030;-62
2022/12/01 01:33:24;;;;;;;54.58;28.55;;;;;;;4.61;100.00;102554.06;4987870;28;20442;-63
2022/12/01 01:35:50;;;;;;;55.38;29.65;;;;;;;4.62;100.00;102558.44;4988565;28;20054;-62
2022/12/01 01:38:15;;;;;;;49.80;27.52;;;;;;;4.61;100.00;102562.69;4988094;28;20082;-62
2022/12/01 01:40:42;;;;;;;51.95;27.05;;;;;;;4.61;100.00;102570.38;4987833;28;20029;-62
2022/12/01 01:43:36;;;;;;;54.13;28.23;;;;;;;4.61;100.00;102564.34;4987980;28;20065;-62
2022/12/01 01:46:02;;;;;;;49.15;27.73;;;;;;;4.62;100.00;102573.84;4988326;28;20117;-62
2022/12/01 01:48:27;;;;;;;52.25;26.65;;;;;;;4.61;100.00;102574.59;4987878;28;20544;-62
2022/12/01 01:50:52;;;;;;;48.55;25.08;;;;;;;4.60;100.00;102572.81;4987387;28;20022;-62
2022/12/01 01:53:18;;;;;;;46.42;27.10;;;;;;;4.59;100.00;102565.91;4988791;28;20514;-62
2022/12/01 01:55:43;;;;;;;45.78;25.92;;;;;;;4.59;100.00;102568.47;4975401;28;20031;-62
2022/12/01 01:58:09;;;;;;;45.10;25.88;;;;;;;4.59;100.00;102569.34;4988427;28;20377;-62
2022/12/01 02:00:38;;;;;;;46.22;25.52;;;;;;;4.59;100.00;102568.47;4987753;28;20018;-62
2022/12/01 02:03:03;;;;;;;45.05;26.73;;;;;;;4.59;100.00;102571.03;4988518;28;20026;-62
2022/12/01 02:05:32;;;;;;;50.25;27.33;;;;;;;4.57;100.00;102566.66;4988093;28;20035;-62
2022/12/01 02:07:59;;;;;;;46.28;26.85;;;;;;;4.57;100.00;102561.50;4987944;28;20030;-62
2022/12/01 02:10:39;;;;;;;52.53;27.42;;;;;;;4.56;100.00;102570.00;4987217;28;20026;-62
2022/12/01 02:13:13;;;;;;;53.22;27.67;;;;;;;4.59;100.00;102571.03;4987267;28;20479;-63
2022/12/01 02:15:47;;;;;;;51.22;26.85;;;;;;;4.59;100.00;102569.34;4987894;28;20038;-63
2022/12/01 02:18:20;;;;;;;52.75;27.75;;;;;;;4.56;100.00;102567.44;4987714;28;20050;-62
2022/12/01 02:21:01;;;;;;;48.43;26.77;;;;;;;4.57;100.00;102568.31;4987710;28;20355;-62
2022/12/01 02:24:11;;;;;;;49.93;27.30;;;;;;;4.56;100.00;102564.88;4987011;28;20479;-62
2022/12/01 02:26:41;;;;;;;49.47;26.67;;;;;;;4.55;100.00;102559.59;4975384;28;20038;-62
2022/12/01 02:29:06;;;;;;;51.20;28.80;;;;;;;4.56;100.00;102561.38;4987484;28;20030;-62
2022/12/01 02:32:04;;;;;;;51.20;26.67;;;;;;;4.55;100.00;102567.31;4987224;28;20026;-63
2022/12/01 02:34:34;;;;;;;45.30;25.42;;;;;;;4.54;100.00;102562.94;4957435;28;20038;-62
2022/12/01 02:37:09;;;;;;;46.55;27.00;;;;;;;4.53;100.00;102563.72;4986951;28;20072;-62
2022/12/01 02:39:42;;;;;;;46.40;26.08;;;;;;;4.54;100.00;102557.78;4987532;28;20371;-62
2022/12/01 02:42:47;;;;;;;51.15;27.23;;;;;;;4.53;100.00;102558.56;4987434;28;20400;-63
2022/12/01 02:45:04;;;;;;;51.27;26.33;;;;;;;4.54;100.00;102570.63;4986883;28;20089;-62
2022/12/01 02:47:32;;;;;;;56.00;28.40;;;;;;;4.55;100.00;102563.06;4987438;28;20022;-62
2022/12/01 02:49:57;;;;;;;49.08;26.15;;;;;;;4.53;100.00;102567.16;4987749;28;20076;-63
2022/12/01 02:52:25;;;;;;;52.08;27.85;;;;;;;4.52;100.00;102565.38;4987596;28;20026;-62
2022/12/01 02:54:52;;;;;;;54.43;29.30;;;;;;;4.53;100.00;102564.59;4986893;28;20541;-63
2022/12/01 02:57:18;;;;;;;51.50;28.27;;;;;;;4.53;100.00;102569.72;4975414;28;20045;-63
2022/12/01 02:59:49;;;;;;;50.95;26.60;;;;;;;4.53;100.00;102567.16;4987768;28;20029;-62
2022/12/01 03:02:54;;;;;;;48.80;27.02;;;;;;;4.54;100.00;102568.97;4987677;28;20065;-62
2022/12/01 03:05:33;;;;;;;51.08;27.60;;;;;;;4.54;100.00;102566.41;4976865;28;20061;-62
2022/12/01 03:08:18;;;;;;;52.13;28.42;;;;;;;4.55;100.00;102568.19;4985656;28;20035;-62
2022/12/01 03:10:54;;;;;;;58.35;29.88;;;;;;;4.53;100.00;102572.28;4987578;28;20058;-62
2022/12/01 03:13:45;;;;;;;58.28;29.98;;;;;;;4.53;100.00;102574.84;4986585;28;20018;-62
2022/12/01 03:16:26;;;;;;;52.28;27.83;;;;;;;4.53;100.00;102574.84;4986860;28;20049;-62
2022/12/01 03:19:13;;;;;;;52.00;27.90;;;;;;;4.53;100.00;102568.84;4986127;28;20034;-62
2022/12/01 03:21:41;;;;;;;52.88;28.05;;;;;;;4.51;100.00;102571.28;4984426;28;20037;-63
2022/12/01 03:24:12;;;;;;;55.80;29.83;;;;;;;4.51;100.00;102567.81;4989583;28;20080;-62
2022/12/01 03:26:40;;;;;;;49.83;27.15;;;;;;;4.51;100.00;102560.09;4990656;28;20066;-63
2022/12/01 03:29:14;;;;;;;48.67;27.33;;;;;;;4.50;100.00;102564.34;4990989;28;20041;-62
2022/12/01 03:31:44;;;;;;;53.22;30.00;;;;;;;4.51;100.00;102566.16;4990226;28;20029;-63
2022/12/01 03:34:23;;;;;;;50.30;28.88;;;;;;;4.51;100.00;102560.09;4988822;28;20041;-62
2022/12/01 03:36:58;;;;;;;48.85;28.92;;;;;;;4.50;100.00;102566.91;4978727;28;20133;-62
2022/12/01 03:39:32;;;;;;;53.72;28.83;;;;;;;4.50;100.00;102561.75;4990759;28;20378;-63
2022/12/01 03:42:07;;;;;;;50.07;27.37;;;;;;;4.49;100.00;102564.22;4990298;28;20530;-63
2022/12/01 03:44:39;;;;;;;48.80;28.13;;;;;;;4.49;100.00;102561.63;4989837;28;20408;-62
2022/12/01 03:47:19;;;;;;;48.60;27.30;;;;;;;4.48;100.00;102570.13;4990937;28;20029;-63
2022/12/01 03:49:46;;;;;;;50.37;28.17;;;;;;;4.48;100.00;102565.88;4989751;28;20069;-62
2022/12/01 03:52:39;;;;;;;47.25;26.55;;;;;;;4.49;100.00;102565.13;4990808;28;20034;-62
2022/12/01 03:55:21;;;;;;;45.10;26.73;;;;;;;4.48;100.00;102560.72;4984512;28;20037;-63
2022/12/01 03:58:19;;;;;;;48.87;27.17;;;;;;;4.48;100.00;102565.00;4990505;28;20177;-62
2022/12/01 04:00:48;;;;;;;50.03;28.10;;;;;;;4.47;100.00;102564.09;4974138;28;20035;-62
2022/12/01 04:03:19;;;;;;;50.03;28.63;;;;;;;4.48;100.00;102570.13;4990503;28;20025;-62
2022/12/01 04:05:44;;;;;;;45.13;26.38;;;;;;;4.48;100.00;102571.00;4990677;28;20576;-63
2022/12/01 04:08:09;;;;;;;48.00;27.73;;;;;;;4.48;100.00;102573.56;4989383;28;20220;-63
2022/12/01 04:10:35;;;;;;;49.57;27.50;;;;;;;4.49;100.00;102577.03;4990056;28;20031;-62
2022/12/01 04:13:00;;;;;;;43.97;26.45;;;;;;;4.50;100.00;102573.69;4989430;28;20026;-62
2022/12/01 04:15:26;;;;;;;47.23;27.43;;;;;;;4.50;100.00;102574.59;4989404;28;20030;-62
2022/12/01 04:17:52;;;;;;;46.47;27.90;;;;;;;4.48;100.00;102573.56;4990281;28;20022;-62
2022/12/01 04:20:18;;;;;;;45.83;27.07;;;;;;;4.48;100.00;102575.25;4982570;28;20073;-63
2022/12/01 04:22:44;;;;;;;45.70;27.67;;;;;;;4.48;100.00;102578.69;4984956;28;20077;-62
2022/12/01 04:25:10;;;;;;;44.70;25.13;;;;;;;4.48;100.00;102575.25;4990084;28;20037;-62
2022/12/01 04:27:35;;;;;;;49.50;26.73;;;;;;;4.48;100.00;102575.25;4989222;28;20080;-62
2022/12/01 04:30:01;;;;;;;49.50;27.30;;;;;;;4.48;100.00;102576.13;4989505;28;20026;-62
2022/12/01 04:32:26;;;;;;;46.63;27.33;;;;;;;4.49;100.00;102577.03;4989790;28;20018;-62
2022/12/01 04:34:52;;;;;;;45.87;26.93;;;;;;;4.48;100.00;102573.56;4989284;28;20028;-62
2022/12/01 04:37:17;;;;;;;45.40;27.43;;;;;;;4.48;100.00;102571.00;4989375;28;20446;-62
2022/12/01 04:39:43;;;;;;;42.93;26.53;;;;;;;4.49;100.00;102569.34;4989596;28;20379;-62
2022/12/01 04:42:09;;;;;;;47.60;26.83;;;;;;;4.47;100.00;102573.44;4987912;28;20429;-63
2022/12/01 04:44:34;;;;;;;46.33;26.70;;;;;;;4.47;100.00;102576.91;4989578;28;20566;-63
2022/12/01 04:46:59;;;;;;;43.77;26.10;;;;;;;4.45;100.00;102570.75;4989702;28;20117;-62
2022/12/01 04:49:25;;;;;;;46.47;26.90;;;;;;;4.46;100.00;102575.13;4988275;28;20030;-62
2022/12/01 04:51:50;;;;;;;46.47;26.73;;;;;;;4.45;100.00;102570.75;4989199;28;20022;-63
2022/12/01 04:54:17;;;;;;;47.83;26.57;;;;;;;4.47;100.00;102569.22;4988185;28;20023;-62
2022/12/01 04:56:42;;;;;;;44.47;26.67;;;;;;;4.46;100.00;102572.56;4988203;28;20388;-62
2022/12/01 04:59:08;;;;;;;45.37;28.27;;;;;;;4.47;100.00;102574.34;4990068;28;20602;-62
2022/12/01 05:01:33;;;;;;;51.17;29.00;;;;;;;4.47;100.00;102571.78;4989990;28;20014;-63
2022/12/01 05:03:59;;;;;;;45.83;27.47;;;;;;;4.47;100.00;102574.34;4988096;28;20029;-62
2022/12/01 05:06:26;;;;;;;45.87;28.10;;;;;;;4.48;100.00;102571.00;4988881;28;20089;-62
2022/12/01 05:08:58;;;;;;;48.27;28.00;;;;;;;4.48;100.00;102568.44;4989556;28;20022;-63
2022/12/01 05:11:24;;;;;;;44.60;28.17;;;;;;;4.48;100.00;102571.00;4988961;28;20150;-62
2022/12/01 05:13:50;;;;;;;46.40;27.63;;;;;;;4.48;100.00;102565.00;4988893;28;20403;-62
2022/12/01 05:16:18;;;;;;;46.70;27.23;;;;;;;4.48;100.00;102565.00;4989195;28;20030;-62
2022/12/01 05:18:49;;;;;;;44.97;26.43;;;;;;;4.48;100.00;102575.25;4988851;28;20467;-62
2022/12/01 05:21:14;;;;;;;44.47;26.17;;;;;;;4.45;100.00;102565.63;4988906;28;20383;-62
2022/12/01 05:23:40;;;;;;;41.93;26.27;;;;;;;4.47;100.00;102578.56;4988219;28;20022;-62
2022/12/01 05:26:07;;;;;;;43.50;26.42;;;;;;;4.46;100.00;102574.22;4988326;28;20125;-63
2022/12/01 05:28:33;;;;;;;46.77;27.33;;;;;;;4.45;100.00;102575.88;4989098;28;20026;-63
2022/12/01 05:30:59;;;;;;;39.43;24.77;;;;;;;4.46;100.00;102577.69;4988670;28;20022;-62
2022/12/01 05:33:25;;;;;;;45.28;25.83;;;;;;;4.45;100.00;102570.75;4988280;28;20014;-63
2022/12/01 05:35:51;;;;;;;44.40;26.67;;;;;;;4.45;100.00;102583.59;4988348;28;20033;-63
2022/12/01 05:38:17;;;;;;;41.73;25.97;;;;;;;4.44;100.00;102579.22;4988994;28;20382;-63
2022/12/01 05:40:48;;;;;;;45.60;26.97;;;;;;;4.43;100.00;102582.56;4987962;28;20033;-62
2022/12/01 05:43:14;;;;;;;45.13;25.20;;;;;;;4.42;100.00;102585.91;4987077;28;20109;-63
2022/12/01 05:45:39;;;;;;;44.47;25.57;;;;;;;4.42;100.00;102583.34;4986011;28;20463;-62
2022/12/01 05:48:04;;;;;;;46.13;26.97;;;;;;;4.42;100.00;102575.63;4987960;28;20034;-62
2022/12/01 05:50:30;;;;;;;43.27;26.67;;;;;;;4.42;100.00;102578.19;4986719;28;20597;-62
2022/12/01 05:52:56;;;;;;;43.55;26.77;;;;;;;4.42;100.00;102580.78;4986048;28;20034;-62
2022/12/01 05:55:21;;;;;;;38.03;24.57;;;;;;;4.42;100.00;102583.34;4979193;28;20031;-63
2022/12/01 05:57:46;;;;;;;44.50;26.47;;;;;;;4.42;100.00;102578.19;4986220;28;20497;-62
2022/12/01 06:00:13;;;;;;;42.30;27.08;;;;;;;4.40;100.00;102578.06;4985435;28;20494;-62
2022/12/01 06:02:42;;;;;;;39.20;25.77;;;;;;;4.41;100.00;102589.22;4985765;28;20034;-62
2022/12/01 06:05:08;;;;;;;41.83;27.00;;;;;;;4.40;100.00;102583.22;4988253;28;20030;-62
2022/12/01 06:07:34;;;;;;;45.47;26.80;;;;;;;4.41;100.00;102578.94;4987323;28;20041;-62
2022/12/01 06:10:00;;;;;;;42.67;26.90;;;;;;;4.41;100.00;102594.34;4986892;28;20030;-62
2022/12/01 06:12:26;;;;;;;41.47;25.13;;;;;;;4.41;100.00;102594.34;4986914;28;20391;-62
2022/12/01 06:14:51;;;;;;;40.10;25.97;;;;;;;4.41;100.00;102584.09;4987926;28;20030;-62
2022/12/01 06:17:16;;;;;;;42.03;25.13;;;;;;;4.41;100.00;102586.66;4987345;28;20037;-62
2022/12/01 06:19:42;;;;;;;46.67;27.10;;;;;;;4.40;100.00;102587.44;4987246;28;20442;-63
2022/12/01 06:22:08;;;;;;;46.23;26.00;;;;;;;4.40;100.00;102592.56;4987508;28;20038;-63
2022/12/01 06:24:33;;;;;;;46.37;26.40;;;;;;;4.40;100.00;102584.88;4986449;28;20092;-62
2022/12/01 06:26:58;;;;;;;45.77;28.00;;;;;;;4.40;100.00;102582.28;4987804;28;20040;-62
2022/12/01 06:29:23;;;;;;;45.30;26.00;;;;;;;4.40;100.00;102584.88;4987193;28;20029;-62
2022/12/01 06:31:49;;;;;;;45.50;26.37;;;;;;;4.38;100.00;102583.81;4986371;28;20026;-62
2022/12/01 06:34:14;;;;;;;43.40;25.90;;;;;;;4.36;100.00;102591.41;4987389;28;20034;-62
2022/12/01 06:36:39;;;;;;;42.00;26.50;;;;;;;4.36;100.00;102591.41;4987572;28;20030;-62
2022/12/01 06:39:08;;;;;;;45.33;26.50;;;;;;;4.35;100.00;102594.75;4986698;28;20026;-62
2022/12/01 06:41:33;;;;;;;41.83;24.33;;;;;;;4.36;100.00;102593.97;4987958;28;20049;-62
2022/12/01 06:44:00;;;;;;;45.83;26.87;;;;;;;4.36;100.00;102596.53;4987042;28;20469;-62
2022/12/01 06:46:26;;;;;;;47.13;26.93;;;;;;;4.37;100.00;102600.00;4975872;28;20058;-62
2022/12/01 06:48:51;;;;;;;43.83;26.50;;;;;;;4.36;100.00;102603.34;4987404;28;20054;-62
2022/12/01 06:51:17;;;;;;;43.57;26.20;;;;;;;4.35;100.00;102604.13;4987784;28;20032;-62
2022/12/01 06:53:42;;;;;;;44.63;25.83;;;;;;;4.34;100.00;102603.19;4985377;28;20042;-62
2022/12/01 06:56:08;;;;;;;45.23;25.73;;;;;;;4.35;100.00;102604.13;4987245;28;20022;-62
2022/12/01 06:58:33;;;;;;;41.43;24.53;;;;;;;4.36;100.00;102611.03;4990381;28;20441;-62
2022/12/01 07:00:59;;;;;;;41.13;25.30;;;;;;;4.36;100.00;102617.06;4989380;28;20026;-63
2022/12/01 07:03:24;;;;;;;44.03;25.27;;;;;;;4.37;100.00;102617.97;4988609;28;20542;-62
2022/12/01 07:05:59;;;;;;;44.60;24.07;;;;;;;4.37;100.00;102628.25;4987195;28;20030;-62
2022/12/01 07:08:26;;;;;;;45.50;26.20;;;;;;;4.37;100.00;102628.25;4987310;28;20531;-62
2022/12/01 07:11:03;;;;;;;42.67;24.23;;;;;;;4.37;100.00;102623.13;4984884;28;20414;-62
2022/12/01 07:13:29;;;;;;;45.37;26.13;;;;;;;4.38;100.00;102630.03;4985550;28;20038;-62
2022/12/01 07:15:55;;;;;;;43.05;24.65;;;;;;;4.39;100.00;102631.84;4987895;28;20034;-62
2022/12/01 07:18:21;;;;;;;43.63;24.73;;;;;;;4.39;100.00;102629.28;4983666;28;20034;-62
2022/12/01 07:20:46;;;;;;;47.00;25.77;;;;;;;4.39;100.00;102635.31;4985823;28;20030;-62
2022/12/01 07:23:11;;;;;;;46.73;25.83;;;;;;;4.39;100.00;102626.72;4985165;28;20042;-62
2022/12/01 07:25:37;;;;;;;47.33;25.40;;;;;;;4.40;100.00;102641.34;4986545;28;20168;-63
2022/12/01 07:28:02;;;;;;;47.77;24.33;;;;;;;4.40;100.00;102638.78;4984257;28;20046;-63
2022/12/01 07:30:27;;;;;;;46.40;25.60;;;;;;;4.40;100.00;102634.56;4986847;28;20030;-63
2022/12/01 07:32:53;;;;;;;45.30;24.57;;;;;;;4.39;100.00;102643.00;4987857;28;20030;-63
2022/12/01 07:35:19;;;;;;;45.20;26.00;;;;;;;4.42;100.00;102644.94;4990619;28;20058;-63
2022/12/01 07:37:44;;;;;;;46.40;23.93;;;;;;;4.42;100.00;102642.38;4988793;28;20445;-64
2022/12/01 07:40:10;;;;;;;44.50;26.13;;;;;;;4.40;100.00;102639.69;4990217;28;20022;-63
2022/12/01 07:42:35;;;;;;;43.63;25.97;;;;;;;4.41;100.00;102640.56;4990051;28;20060;-63
2022/12/01 07:45:01;;;;;;;49.83;25.87;;;;;;;4.40;100.00;102639.69;4985635;28;20058;-63
2022/12/01 07:47:26;;;;;;;43.60;24.10;;;;;;;4.42;100.00;102637.25;4988337;28;20045;-63
2022/12/01 07:49:51;;;;;;;46.93;26.30;;;;;;;4.41;100.00;102641.47;4986682;28;20026;-63
2022/12/01 07:52:16;;;;;;;43.83;24.03;;;;;;;4.42;100.00;102647.50;4988332;28;20117;-63
2022/12/01 07:54:42;;;;;;;40.63;25.23;;;;;;;4.43;100.00;102644.16;4980192;28;20436;-64
2022/12/01 07:57:07;;;;;;;46.13;25.63;;;;;;;4.43;100.00;102639.03;4987031;28;20049;-63
2022/12/01 07:59:32;;;;;;;43.45;24.40;;;;;;;4.46;100.00;102657.28;4989093;28;20482;-64
2022/12/01 08:01:57;;;;;;;44.93;25.43;;;;;;;4.46;100.00;102654.72;4988512;28;20081;-63
2022/12/01 08:04:23;;;;;;;46.97;25.77;;;;;;;4.47;100.00;102651.38;4986165;28;20113;-65
2022/12/01 08:06:48;;;;;;;46.17;26.27;;;;;;;4.47;100.00;102656.50;4984966;28;20041;-65
2022/12/01 08:09:13;;;;;;;45.33;26.17;;;;;;;4.49;100.00;102654.97;4982122;28;20054;-64
2022/12/01 08:11:39;;;;;;;42.90;25.87;;;;;;;4.50;100.00;102661.91;4986959;28;20026;-64
2022/12/01 08:14:04;;;;;;;43.03;26.63;;;;;;;4.52;100.00;102665.50;4990431;28;20451;-64
2022/12/01 08:16:30;;;;;;;46.97;26.87;;;;;;;4.52;100.00;102662.94;4989593;28;20136;-64
2022/12/01 08:18:55;;;;;;;43.37;26.87;;;;;;;4.53;100.00;102669.88;4987630;28;20145;-65
2022/12/01 08:21:22;;;;;;;45.60;27.30;;;;;;;4.51;100.00;102666.28;4987196;28;20467;-64
2022/12/01 08:23:52;;;;;;;43.27;26.00;;;;;;;4.52;100.00;102669.72;4971432;28;20622;-64
2022/12/01 08:26:19;;;;;;;47.30;27.73;;;;;;;4.51;100.00;102666.28;4985581;28;20088;-64
2022/12/01 08:28:45;;;;;;;40.97;25.63;;;;;;;4.50;100.00;102672.19;4981214;28;20026;-64
2022/12/01 08:31:17;;;;;;;42.83;26.17;;;;;;;4.51;100.00;102670.50;4984907;28;20125;-65
2022/12/01 08:33:42;;;;;;;42.97;25.53;;;;;;;4.52;100.00;102672.31;4989383;28;20046;-65
2022/12/01 08:36:08;;;;;;;48.50;29.00;;;;;;;4.49;100.00;102670.38;4988857;28;20065;-65
2022/12/01 08:38:34;;;;;;;45.50;26.53;;;;;;;4.50;100.00;102676.41;4981881;28;20058;-64
2022/12/01 08:41:08;;;;;;;40.42;26.23;;;;;;;4.50;100.00;102673.84;4985228;28;20034;-65
2022/12/01 08:43:38;;;;;;;38.57;25.53;;;;;;;4.50;100.00;102677.31;4987127;28;20121;-65
2022/12/01 08:46:04;;;;;;;40.65;25.85;;;;;;;4.52;100.00;102680.00;4984831;28;20127;-64
2022/12/01 08:48:30;;;;;;;40.15;25.65;;;;;;;4.53;100.00;102679.25;4983712;28;20041;-64
2022/12/01 08:51:10;;;;;;;40.80;26.17;;;;;;;4.55;100.00;102675.16;4977558;28;20254;-65
2022/12/01 08:53:37;;;;;;;41.72;26.02;;;;;;;4.57;100.00;102677.06;4986927;28;20092;-65
2022/12/01 08:56:07;;;;;;;38.83;25.50;;;;;;;4.60;100.00;102683.25;4981190;28;20034;-64
2022/12/01 08:58:33;;;;;;;39.30;26.33;;;;;;;4.63;100.00;102675.78;4988330;28;20346;-64
2022/12/01 09:01:08;;;;;;;39.38;25.50;;;;;;;4.64;100.00;102675.06;4987332;28;20116;-64
2022/12/01 09:03:34;;;;;;;40.33;26.55;;;;;;;4.66;100.00;102678.63;4986295;28;20037;-64
2022/12/01 09:06:05;;;;;;;46.50;25.95;;;;;;;4.67;100.00;102672.75;4987466;28;20152;-64
2022/12/01 09:08:31;;;;;;;41.85;24.92;;;;;;;4.69;100.00;102673.78;4985676;28;20037;-64
2022/12/01 09:10:58;;;;;;;41.05;25.95;;;;;;;4.71;100.00;102682.50;4985567;28;20470;-65
2022/12/01 09:13:24;;;;;;;46.17;27.55;;;;;;;4.73;100.00;102675.81;4986785;28;20301;-64
2022/12/01 09:16:01;;;;;;;42.53;26.35;;;;;;;4.74;100.00;102676.72;4987001;28;20034;-64
2022/12/01 09:18:30;;;;;;;41.40;25.10;;;;;;;4.75;100.00;102684.56;4989123;28;20356;-66
2022/12/01 09:20:56;;;;;;;45.20;26.95;;;;;;;4.77;100.00;102677.88;4987444;28;20479;-65
2022/12/01 09:23:22;;;;;;;40.22;26.15;;;;;;;4.81;100.00;102676.47;4987587;28;20405;-65
2022/12/01 09:25:49;;;;;;;45.03;27.05;;;;;;;4.83;100.00;102676.59;4986803;28;20030;-65
2022/12/01 09:28:14;;;;;;;41.90;25.60;;;;;;;4.84;100.00;102689.56;4988371;28;20500;-65
2022/12/01 09:30:40;;;;;;;42.83;27.02;;;;;;;4.87;100.00;102683.81;4989039;28;20088;-65
2022/12/01 09:33:05;;;;;;;43.17;26.83;;;;;;;4.91;100.00;102688.47;4987994;28;20034;-65
2022/12/01 09:35:31;;;;;;;41.75;26.35;;;;;;;4.96;100.00;102684.59;4987499;28;20462;-65
2022/12/01 09:37:57;;;;;;;39.70;25.80;;;;;;;4.99;100.00;102690.00;4985830;28;20121;-65
2022/12/01 09:40:33;;;;;;;40.97;26.40;;;;;;;5.02;100.00;102685.09;4987880;28;20037;-65
2022/12/01 09:43:02;;;;;;;40.45;26.38;;;;;;;5.04;100.00;102687.81;4987333;28;20568;-65
2022/12/01 09:45:31;;;;;;;40.03;26.02;;;;;;;5.07;100.00;102689.75;4987514;28;20101;-65
2022/12/01 09:47:59;;;;;;;42.97;26.30;;;;;;;5.08;100.00;102688.97;4987143;28;20037;-65
2022/12/01 09:50:26;;;;;;;42.33;27.30;;;;;;;5.09;100.00;102690.78;4987362;28;20065;-65
2022/12/01 09:53:10;;;;;;;40.72;28.23;;;;;;;5.10;100.00;102684.84;4985819;28;20038;-65
2022/12/01 09:55:35;;;;;;;38.15;25.83;;;;;;;5.11;100.00;102678.97;4986621;28;20483;-65
2022/12/01 09:58:02;;;;;;;39.78;24.75;;;;;;;5.13;100.00;102682.53;4987465;28;20038;-65
2022/12/01 10:00:34;;;;;;;44.97;26.42;;;;;;;5.18;100.00;102675.22;4986705;28;20022;-65
2022/12/01 10:03:08;;;;;;;42.47;26.45;;;;;;;5.19;100.00;102675.34;4987471;28;20382;-65
2022/12/01 10:05:56;;;;;;;36.72;26.08;;;;;;;5.16;100.00;102682.81;4985783;28;20049;-65
2022/12/01 10:08:26;;;;;;;39.42;26.90;;;;;;;5.17;100.00;102676.88;4985854;28;20049;-65
2022/12/01 10:10:56;;;;;;;44.20;26.10;;;;;;;5.19;100.00;102679.59;4985454;28;20031;-65
2022/12/01 10:13:24;;;;;;;44.88;28.23;;;;;;;5.19;100.00;102675.34;4986479;28;20025;-65
2022/12/01 10:15:53;;;;;;;43.60;27.25;;;;;;;5.17;100.00;102679.47;4986457;28;20034;-65
2022/12/01 10:19:00;;;;;;;44.45;27.13;;;;;;;5.17;100.00;102669.19;4985924;28;20027;-65
2022/12/01 10:21:46;;;;;;;43.72;25.98;;;;;;;5.19;100.00;102672.78;4983161;28;20042;-65
2022/12/01 10:24:39;;;;;;;40.22;25.65;;;;;;;5.23;100.00;102676.50;4977535;28;20042;-65
2022/12/01 10:27:04;;;;;;;41.88;25.90;;;;;;;5.25;100.00;102667.25;4980265;28;20015;-65
2022/12/01 10:29:44;;;;;;;43.90;25.95;;;;;;;5.26;100.00;102662.25;4982621;28;20049;-65
2022/12/01 10:32:26;;;;;;;45.53;26.20;;;;;;;5.31;100.00;102661.72;4981948;28;20034;-65
2022/12/01 10:34:52;;;;;;;43.63;27.23;;;;;;;5.35;100.00;102667.25;4984500;28;20491;-65
2022/12/01 10:37:20;;;;;;;45.00;27.80;;;;;;;5.38;100.00;102664.00;4985246;28;20038;-65
2022/12/01 10:39:49;;;;;;;38.45;25.45;;;;;;;5.40;100.00;102652.19;4982523;28;20122;-65
2022/12/01 10:42:35;;;;;;;39.45;24.95;;;;;;;5.40;100.00;102652.19;4986523;28;20186;-65
2022/12/01 10:45:05;;;;;;;44.35;25.90;;;;;;;5.44;100.00;102643.97;4984017;28;20128;-65
2022/12/01 10:47:31;;;;;;;40.55;25.98;;;;;;;5.46;100.00;102645.00;4981031;28;20216;-65
2022/12/01 10:49:57;;;;;;;42.92;25.98;;;;;;;5.50;100.00;102651.28;4987552;28;20117;-65
2022/12/01 10:52:36;;;;;;;42.17;25.95;;;;;;;5.49;100.00;102641.75;4986402;28;20085;-65
2022/12/01 10:55:05;;;;;;;41.50;26.50;;;;;;;5.49;100.00;102645.22;4979502;28;20149;-65
2022/12/01 10:57:31;;;;;;;42.45;26.73;;;;;;;5.49;100.00;102644.31;4986455;28;20088;-65
2022/12/01 11:00:03;;;;;;;39.70;25.42;;;;;;;5.49;100.00;102642.66;4986799;28;20034;-65
2022/12/01 11:02:30;;;;;;;39.83;25.83;;;;;;;5.52;100.00;102640.31;4983881;28;20034;-65
2022/12/01 11:05:06;;;;;;;41.58;27.27;;;;;;;5.56;100.00;102638.03;4977251;28;20038;-65
2022/12/01 11:07:43;;;;;;;45.03;26.33;;;;;;;5.55;100.00;102634.56;4978871;28;20178;-65
2022/12/01 11:10:20;;;;;;;41.30;25.85;;;;;;;5.57;100.00;102635.56;4982192;28;20042;-65
2022/12/01 11:12:54;;;;;;;39.28;25.70;;;;;;;5.60;100.00;102634.91;4984514;28;20446;-65
2022/12/01 11:15:25;;;;;;;43.40;26.58;;;;;;;5.63;100.00;102640.34;4985741;28;20027;-65
2022/12/01 11:18:03;;;;;;;42.60;27.67;;;;;;;5.65;100.00;102631.94;4982637;28;20105;-65